Ironia, NJ (07845)

7:23 AM EDT on May 06, 2015 (GMT -0400)
Succasunna | | Change Station
CLOSE
Current Station
Personal Weather Station
Location: Roxbury Township, NJ
Elevation: 719 ft
Nearby Weather Stations

Elev 719 ft 40.85 °N, 74.64 °W | Updated 11 minutes ago

Overcast
Overcast
60.3 °F
Feels Like 60.3 °F
N
1.1
Wind Variable Wind from NNE

Today
High -- | Low -- °F
--% Chance of Precip.
Yesterday
High -- | Low -- °F
Precip. -- in
5:51 AM 7:59 PM
Waning Gibbous, 94% visible
Pressure 30.26 in
Visibility 10.0 miles
Clouds Overcast 7000 ft
Dew Point 46 °F
Humidity 60%
Rainfall 0.00 in
Snow Depth Not available.
UV 0 out of 12
Pollen 3.80 out of 12
Air Quality Not available.
Flu Activity Local Activity
METAR KMMU 061045Z 02004KT 10SM OVC070 18/06 A3026

More Conditions Fewer Conditions

Pressure 30.26 in
Visibility 10.0 miles
Clouds Overcast 7000 ft
Dew Point 46 °F
Humidity 60%
Rainfall 0.00 in
Snow Depth Not available.
UV 0 out of 12
Pollen 3.80 out of 12
Air Quality Not available.
Flu Activity Local Activity
METAR KMMU 061045Z 02004KT 10SM OVC070 18/06 A3026

More Conditions Fewer Conditions

Nowcast | as of 7:11 am EDT on May 6, 2015

Scattered mostly light showers were moving southeast into eastern Pennsylvania and northwest New Jersey. At 710 am the heaviest showers were mostly from reading Pennsylvania through the Lehigh Valley, primarily between interstates 78 and 80. Meanwhile, a few sprinkles were moving through northeast Maryland into northern Delaware.

×

10-Day Weather Forecast

Almanac

Astronomy

May. 06, 2015 Rise Set
Actual Time
Civil Twilight
Nautical Twilight
Astronomical Twilight
Moon
Length of Visible Light
Length of Day
Tomorrow will be .
, % of the Moon is Illuminated

Today's Extremes

State Highs State Lows

Community

WunderPhotos

Upload Photos

1,818,879 photos uploaded!

WunderBlogs® & News

Nearby

Air Quality

  Air Quality AQ Index Pollutant
Not available.

Snow Depth

Station Depth Elevation

Earthquake Activity

City Distance Mag. Time & Date
Minimum magnitude displayed is 2.5.

Coastal Water Temperatures

Place Temperature

Stations

Nearby Weather Stations

Station Location Temp. Windchill Dew Point Humidity Wind Precip. Elev Updated Type